sensor_id;sensor_type;location;lat;lon;timestamp;pressure;altitude;pressure_sealevel;temperature;humidity
63287;BME280;49410;55.708;37.522;2023-02-15T00:01:40;99722.38;;;-2.23;nan
63287;BME280;49410;55.708;37.522;2023-02-15T00:04:06;99727.56;;;-2.20;nan
63287;BME280;49410;55.708;37.522;2023-02-15T00:06:33;99731.50;;;-2.27;nan
63287;BME280;49410;55.708;37.522;2023-02-15T00:08:59;99729.72;;;-2.10;nan
63287;BME280;49410;55.708;37.522;2023-02-15T00:11:25;99736.09;;;-2.13;nan
63287;BME280;49410;55.708;37.522;2023-02-15T00:14:22;99737.75;;;-2.26;nan
63287;BME280;49410;55.708;37.522;2023-02-15T00:16:49;99705.88;;;-2.47;nan
63287;BME280;49410;55.708;37.522;2023-02-15T00:19:17;99731.63;;;-2.44;nan
63287;BME280;49410;55.708;37.522;2023-02-15T00:21:43;99734.03;;;-2.40;nan
63287;BME280;49410;55.708;37.522;2023-02-15T00:24:11;99729.88;;;-2.45;nan
63287;BME280;49410;55.708;37.522;2023-02-15T00:26:41;99720.28;;;-2.34;nan
63287;BME280;49410;55.708;37.522;2023-02-15T00:29:08;99715.44;;;-2.27;nan
63287;BME280;49410;55.708;37.522;2023-02-15T00:31:34;99729.09;;;-2.47;nan
63287;BME280;49410;55.708;37.522;2023-02-15T00:34:09;99736.56;;;-2.37;nan
63287;BME280;49410;55.708;37.522;2023-02-15T00:36:35;99739.75;;;-2.30;nan
63287;BME280;49410;55.708;37.522;2023-02-15T00:39:01;99730.03;;;-2.32;nan
63287;BME280;49410;55.708;37.522;2023-02-15T00:41:27;99739.22;;;-2.21;nan
63287;BME280;49410;55.708;37.522;2023-02-15T00:43:52;99743.97;;;-2.26;nan
63287;BME280;49410;55.708;37.522;2023-02-15T00:46:18;99736.88;;;-2.27;nan
63287;BME280;49410;55.708;37.522;2023-02-15T00:48:43;99756.56;;;-2.28;nan
63287;BME280;49410;55.708;37.522;2023-02-15T00:51:09;99732.91;;;-2.52;nan
63287;BME280;49410;55.708;37.522;2023-02-15T00:53:34;99747.25;;;-2.37;nan
63287;BME280;49410;55.708;37.522;2023-02-15T00:56:00;99735.34;;;-2.47;nan
63287;BME280;49410;55.708;37.522;2023-02-15T00:58:25;99750.72;;;-2.35;nan
63287;BME280;49410;55.708;37.522;2023-02-15T01:00:51;99761.19;;;-2.30;nan
63287;BME280;49410;55.708;37.522;2023-02-15T01:03:18;99757.56;;;-2.45;nan
63287;BME280;49410;55.708;37.522;2023-02-15T01:05:44;99737.22;;;-2.49;nan
63287;BME280;49410;55.708;37.522;2023-02-15T01:08:10;99745.38;;;-2.35;nan
63287;BME280;49410;55.708;37.522;2023-02-15T01:10:35;99747.84;;;-2.47;nan
63287;BME280;49410;55.708;37.522;2023-02-15T01:13:01;99756.25;;;-2.38;nan
63287;BME280;49410;55.708;37.522;2023-02-15T01:15:27;99751.47;;;-2.48;nan
63287;BME280;49410;55.708;37.522;2023-02-15T01:17:52;99765.59;;;-2.45;nan
63287;BME280;49410;55.708;37.522;2023-02-15T01:20:25;99764.53;;;-2.42;nan
63287;BME280;49410;55.708;37.522;2023-02-15T01:22:51;99756.81;;;-2.48;nan
63287;BME280;49410;55.708;37.522;2023-02-15T01:25:18;99754.69;;;-2.42;nan
63287;BME280;49410;55.708;37.522;2023-02-15T01:27:44;99753.03;;;-2.44;nan
63287;BME280;49410;55.708;37.522;2023-02-15T01:30:11;99751.94;;;-2.40;nan
63287;BME280;49410;55.708;37.522;2023-02-15T01:32:37;99766.09;;;-2.38;nan
63287;BME280;49410;55.708;37.522;2023-02-15T01:35:02;99729.28;;;-2.67;nan
63287;BME280;49410;55.708;37.522;2023-02-15T01:37:33;99760.66;;;-2.37;nan
63287;BME280;49410;55.708;37.522;2023-02-15T01:40:00;99763.66;;;-2.43;nan
63287;BME280;49410;55.708;37.522;2023-02-15T01:42:27;99760.81;;;-2.40;nan
63287;BME280;49410;55.708;37.522;2023-02-15T01:44:54;99781.13;;;-2.52;nan
63287;BME280;49410;55.708;37.522;2023-02-15T01:47:40;99780.69;;;-2.44;nan
63287;BME280;49410;55.708;37.522;2023-02-15T01:52:40;99768.69;;;-2.53;nan
63287;BME280;49410;55.708;37.522;2023-02-15T01:55:08;99775.94;;;-2.55;nan
63287;BME280;49410;55.708;37.522;2023-02-15T01:57:34;99776.97;;;-2.57;nan
63287;BME280;49410;55.708;37.522;2023-02-15T02:00:03;99782.50;;;-2.44;nan
63287;BME280;49410;55.708;37.522;2023-02-15T02:02:30;99770.97;;;-2.62;nan
63287;BME280;49410;55.708;37.522;2023-02-15T02:05:00;99783.28;;;-2.58;nan
63287;BME280;49410;55.708;37.522;2023-02-15T02:07:29;99784.59;;;-2.50;nan
63287;BME280;49410;55.708;37.522;2023-02-15T02:09:56;99779.03;;;-2.62;nan
63287;BME280;49410;55.708;37.522;2023-02-15T02:12:22;99774.44;;;-2.60;nan
63287;BME280;49410;55.708;37.522;2023-02-15T02:14:49;99776.72;;;-2.53;nan
63287;BME280;49410;55.708;37.522;2023-02-15T02:17:31;99779.47;;;-2.54;nan
63287;BME280;49410;55.708;37.522;2023-02-15T02:23:27;99784.75;;;-2.53;nan
63287;BME280;49410;55.708;37.522;2023-02-15T02:34:19;99796.03;;;-2.63;nan
63287;BME280;49410;55.708;37.522;2023-02-15T02:37:15;99787.16;;;-2.48;nan
63287;BME280;49410;55.708;37.522;2023-02-15T02:42:39;99804.16;;;-2.65;nan
63287;BME280;49410;55.708;37.522;2023-02-15T02:48:16;99814.88;;;-2.65;nan
63287;BME280;49410;55.708;37.522;2023-02-15T02:50:44;99802.13;;;-2.77;nan
63287;BME280;49410;55.708;37.522;2023-02-15T02:53:10;99796.72;;;-2.76;nan
63287;BME280;49410;55.708;37.522;2023-02-15T02:55:56;99803.81;;;-2.75;nan
63287;BME280;49410;55.708;37.522;2023-02-15T02:58:40;99795.00;;;-2.94;nan
63287;BME280;49410;55.708;37.522;2023-02-15T03:01:22;99814.66;;;-2.78;nan
63287;BME280;49410;55.708;37.522;2023-02-15T03:03:52;99811.03;;;-2.77;nan
63287;BME280;49410;55.708;37.522;2023-02-15T03:06:30;99805.31;;;-2.87;nan
63287;BME280;49410;55.708;37.522;2023-02-15T03:09:05;99812.44;;;-2.70;nan
63287;BME280;49410;55.708;37.522;2023-02-15T03:11:40;99800.16;;;-2.74;nan
63287;BME280;49410;55.708;37.522;2023-02-15T03:14:06;99802.56;;;-2.85;nan
63287;BME280;49410;55.708;37.522;2023-02-15T03:16:31;99814.22;;;-2.86;nan
63287;BME280;49410;55.708;37.522;2023-02-15T03:19:21;99826.47;;;-2.82;nan
63287;BME280;49410;55.708;37.522;2023-02-15T03:21:51;99814.72;;;-2.79;nan
63287;BME280;49410;55.708;37.522;2023-02-15T03:24:32;99806.09;;;-2.85;nan
63287;BME280;49410;55.708;37.522;2023-02-15T03:27:04;99820.38;;;-2.68;nan
63287;BME280;49410;55.708;37.522;2023-02-15T03:29:32;99812.84;;;-2.77;nan
63287;BME280;49410;55.708;37.522;2023-02-15T03:32:00;99829.34;;;-2.85;nan
63287;BME280;49410;55.708;37.522;2023-02-15T03:34:27;99811.94;;;-2.94;nan
63287;BME280;49410;55.708;37.522;2023-02-15T03:37:22;99825.22;;;-2.75;nan
63287;BME280;49410;55.708;37.522;2023-02-15T03:40:15;99836.56;;;-2.87;nan
63287;BME280;49410;55.708;37.522;2023-02-15T03:43:41;99829.34;;;-2.85;nan
63287;BME280;49410;55.708;37.522;2023-02-15T03:48:56;99815.16;;;-3.05;nan
63287;BME280;49410;55.708;37.522;2023-02-15T03:51:27;99807.63;;;-3.14;nan
63287;BME280;49410;55.708;37.522;2023-02-15T03:54:10;99827.06;;;-3.28;nan
63287;BME280;49410;55.708;37.522;2023-02-15T03:56:40;99804.31;;;-3.54;nan
63287;BME280;49410;55.708;37.522;2023-02-15T03:59:07;99839.81;;;-3.33;nan
63287;BME280;49410;55.708;37.522;2023-02-15T04:02:14;99835.97;;;-3.28;nan
63287;BME280;49410;55.708;37.522;2023-02-15T04:04:45;99823.84;;;-3.35;nan
63287;BME280;49410;55.708;37.522;2023-02-15T04:07:11;99839.97;;;-3.36;nan
63287;BME280;49410;55.708;37.522;2023-02-15T04:09:37;99843.34;;;-3.33;nan
63287;BME280;49410;55.708;37.522;2023-02-15T04:12:21;99837.63;;;-3.25;nan
63287;BME280;49410;55.708;37.522;2023-02-15T04:14:47;99841.56;;;-3.32;nan
63287;BME280;49410;55.708;37.522;2023-02-15T04:17:31;99840.16;;;-3.22;nan
63287;BME280;49410;55.708;37.522;2023-02-15T04:19:56;99858.69;;;-3.36;nan
63287;BME280;49410;55.708;37.522;2023-02-15T04:22:40;99826.03;;;-3.43;nan
63287;BME280;49410;55.708;37.522;2023-02-15T04:25:24;99835.78;;;-3.24;nan
63287;BME280;49410;55.708;37.522;2023-02-15T04:27:50;99841.47;;;-3.31;nan
63287;BME280;49410;55.708;37.522;2023-02-15T04:30:19;99834.38;;;-3.32;nan
63287;BME280;49410;55.708;37.522;2023-02-15T04:32:46;99832.41;;;-3.28;nan
63287;BME280;49410;55.708;37.522;2023-02-15T04:35:12;99824.38;;;-3.28;nan
63287;BME280;49410;55.708;37.522;2023-02-15T04:37:38;99832.97;;;-3.21;nan
63287;BME280;49410;55.708;37.522;2023-02-15T04:40:05;99828.34;;;-3.35;nan
63287;BME280;49410;55.708;37.522;2023-02-15T04:42:32;99825.56;;;-3.34;nan
63287;BME280;49410;55.708;37.522;2023-02-15T04:44:57;99845.00;;;-3.30;nan
63287;BME280;49410;55.708;37.522;2023-02-15T04:47:23;99858.00;;;-3.40;nan
63287;BME280;49410;55.708;37.522;2023-02-15T04:49:48;99840.56;;;-3.49;nan
63287;BME280;49410;55.708;37.522;2023-02-15T04:52:13;99853.09;;;-3.49;nan
63287;BME280;49410;55.708;37.522;2023-02-15T04:54:39;99851.75;;;-3.58;nan
63287;BME280;49410;55.708;37.522;2023-02-15T04:57:05;99841.84;;;-3.56;nan
63287;BME280;49410;55.708;37.522;2023-02-15T04:59:30;99845.06;;;-3.67;nan
63287;BME280;49410;55.708;37.522;2023-02-15T05:01:56;99858.97;;;-3.60;nan
63287;BME280;49410;55.708;37.522;2023-02-15T05:04:21;99847.50;;;-3.62;nan
63287;BME280;49410;55.708;37.522;2023-02-15T05:06:47;99863.47;;;-3.43;nan
63287;BME280;49410;55.708;37.522;2023-02-15T05:09:13;99849.00;;;-3.56;nan
63287;BME280;49410;55.708;37.522;2023-02-15T05:11:38;99853.63;;;-3.60;nan
63287;BME280;49410;55.708;37.522;2023-02-15T05:14:04;99856.16;;;-3.76;nan
63287;BME280;49410;55.708;37.522;2023-02-15T05:16:29;99860.66;;;-3.77;nan
63287;BME280;49410;55.708;37.522;2023-02-15T05:18:55;99865.88;;;-3.73;nan
63287;BME280;49410;55.708;37.522;2023-02-15T05:21:20;99875.91;;;-3.79;nan
63287;BME280;49410;55.708;37.522;2023-02-15T05:23:46;99867.97;;;-3.80;nan
63287;BME280;49410;55.708;37.522;2023-02-15T05:26:11;99879.00;;;-3.69;nan
63287;BME280;49410;55.708;37.522;2023-02-15T05:28:55;99877.13;;;-3.67;nan
63287;BME280;49410;55.708;37.522;2023-02-15T05:31:21;99872.88;;;-3.71;nan
63287;BME280;49410;55.708;37.522;2023-02-15T05:33:47;99877.72;;;-3.79;nan
63287;BME280;49410;55.708;37.522;2023-02-15T05:36:12;99884.38;;;-3.69;nan
63287;BME280;49410;55.708;37.522;2023-02-15T05:38:38;99867.38;;;-3.68;nan
63287;BME280;49410;55.708;37.522;2023-02-15T05:41:07;99886.09;;;-3.68;nan
63287;BME280;49410;55.708;37.522;2023-02-15T05:43:33;99866.72;;;-3.73;nan
63287;BME280;49410;55.708;37.522;2023-02-15T05:45:58;99886.09;;;-3.68;nan
63287;BME280;49410;55.708;37.522;2023-02-15T05:48:25;99871.50;;;-3.80;nan
63287;BME280;49410;55.708;37.522;2023-02-15T05:51:17;99880.75;;;-3.68;nan
63287;BME280;49410;55.708;37.522;2023-02-15T05:53:42;99876.56;;;-3.73;nan
63287;BME280;49410;55.708;37.522;2023-02-15T05:56:08;99887.84;;;-3.67;nan
63287;BME280;49410;55.708;37.522;2023-02-15T05:58:36;99896.84;;;-3.69;nan
63287;BME280;49410;55.708;37.522;2023-02-15T06:01:09;99889.31;;;-3.61;nan
63287;BME280;49410;55.708;37.522;2023-02-15T06:03:35;99870.28;;;-3.72;nan
63287;BME280;49410;55.708;37.522;2023-02-15T06:06:00;99886.94;;;-3.67;nan
63287;BME280;49410;55.708;37.522;2023-02-15T06:08:26;99889.13;;;-3.76;nan
63287;BME280;49410;55.708;37.522;2023-02-15T06:10:51;99881.75;;;-3.70;nan
63287;BME280;49410;55.708;37.522;2023-02-15T06:13:16;99893.78;;;-3.79;nan
63287;BME280;49410;55.708;37.522;2023-02-15T06:15:42;99903.66;;;-3.81;nan
63287;BME280;49410;55.708;37.522;2023-02-15T06:18:07;99894.97;;;-3.86;nan
63287;BME280;49410;55.708;37.522;2023-02-15T06:20:32;99910.81;;;-3.82;nan
63287;BME280;49410;55.708;37.522;2023-02-15T06:22:58;99900.63;;;-3.93;nan
63287;BME280;49410;55.708;37.522;2023-02-15T06:25:23;99903.00;;;-3.67;nan
63287;BME280;49410;55.708;37.522;2023-02-15T06:27:49;99909.72;;;-3.78;nan
63287;BME280;49410;55.708;37.522;2023-02-15T06:30:15;99915.66;;;-3.71;nan
63287;BME280;49410;55.708;37.522;2023-02-15T06:32:40;99913.09;;;-3.74;nan
63287;BME280;49410;55.708;37.522;2023-02-15T06:35:06;99919.16;;;-3.70;nan
63287;BME280;49410;55.708;37.522;2023-02-15T06:37:32;99904.09;;;-3.71;nan
63287;BME280;49410;55.708;37.522;2023-02-15T06:39:57;99919.47;;;-3.57;nan
63287;BME280;49410;55.708;37.522;2023-02-15T06:45:44;99921.47;;;-3.44;nan
63287;BME280;49410;55.708;37.522;2023-02-15T06:48:09;99930.16;;;-3.57;nan
63287;BME280;49410;55.708;37.522;2023-02-15T06:50:36;99907.25;;;-3.63;nan
63287;BME280;49410;55.708;37.522;2023-02-15T06:53:01;99932.31;;;-3.47;nan
63287;BME280;49410;55.708;37.522;2023-02-15T06:55:27;99914.84;;;-3.54;nan
63287;BME280;49410;55.708;37.522;2023-02-15T06:57:52;99921.97;;;-3.54;nan
63287;BME280;49410;55.708;37.522;2023-02-15T07:00:18;99911.13;;;-3.51;nan
63287;BME280;49410;55.708;37.522;2023-02-15T07:02:44;99915.88;;;-3.39;nan
63287;BME280;49410;55.708;37.522;2023-02-15T07:05:10;99911.00;;;-3.48;nan
63287;BME280;49410;55.708;37.522;2023-02-15T07:07:36;99921.84;;;-3.51;nan
63287;BME280;49410;55.708;37.522;2023-02-15T07:10:02;99913.06;;;-3.36;nan
63287;BME280;49410;55.708;37.522;2023-02-15T07:12:27;99909.81;;;-3.42;nan
63287;BME280;49410;55.708;37.522;2023-02-15T07:15:12;99919.28;;;-3.35;nan
63287;BME280;49410;55.708;37.522;2023-02-15T07:17:38;99915.56;;;-3.33;nan
63287;BME280;49410;55.708;37.522;2023-02-15T07:20:08;99928.72;;;-3.28;nan
63287;BME280;49410;55.708;37.522;2023-02-15T07:22:35;99881.56;;;-3.48;nan
63287;BME280;49410;55.708;37.522;2023-02-15T07:25:05;99916.47;;;-3.15;nan
63287;BME280;49410;55.708;37.522;2023-02-15T07:27:31;99905.06;;;-3.18;nan
63287;BME280;49410;55.708;37.522;2023-02-15T07:29:57;99911.72;;;-3.27;nan
63287;BME280;49410;55.708;37.522;2023-02-15T07:32:22;99925.47;;;-3.35;nan
63287;BME280;49410;55.708;37.522;2023-02-15T07:34:47;99912.66;;;-3.46;nan
63287;BME280;49410;55.708;37.522;2023-02-15T07:37:13;99928.91;;;-3.14;nan
63287;BME280;49410;55.708;37.522;2023-02-15T07:39:38;99935.88;;;-3.29;nan
63287;BME280;49410;55.708;37.522;2023-02-15T07:42:04;99929.13;;;-3.18;nan
63287;BME280;49410;55.708;37.522;2023-02-15T07:44:29;99939.53;;;-3.12;nan
63287;BME280;49410;55.708;37.522;2023-02-15T07:46:55;99931.88;;;-3.20;nan
63287;BME280;49410;55.708;37.522;2023-02-15T07:49:20;99937.41;;;-3.23;nan
63287;BME280;49410;55.708;37.522;2023-02-15T07:51:45;99939.91;;;-3.20;nan
63287;BME280;49410;55.708;37.522;2023-02-15T07:54:11;99923.31;;;-3.26;nan
63287;BME280;49410;55.708;37.522;2023-02-15T07:56:36;99934.97;;;-3.10;nan
63287;BME280;49410;55.708;37.522;2023-02-15T07:59:02;99915.53;;;-3.14;nan
63287;BME280;49410;55.708;37.522;2023-02-15T08:01:32;99936.59;;;-3.25;nan
63287;BME280;49410;55.708;37.522;2023-02-15T08:03:58;99942.56;;;-3.20;nan
63287;BME280;49410;55.708;37.522;2023-02-15T08:06:25;99946.28;;;-3.05;nan
63287;BME280;49410;55.708;37.522;2023-02-15T08:08:51;99940.75;;;-3.00;nan
63287;BME280;49410;55.708;37.522;2023-02-15T08:11:23;99960.22;;;-3.16;nan
63287;BME280;49410;55.708;37.522;2023-02-15T08:16:35;99957.13;;;-3.25;nan
63287;BME280;49410;55.708;37.522;2023-02-15T08:19:09;99969.97;;;-3.15;nan
63287;BME280;49410;55.708;37.522;2023-02-15T08:21:36;99952.66;;;-3.25;nan
63287;BME280;49410;55.708;37.522;2023-02-15T08:24:03;99959.44;;;-3.18;nan
63287;BME280;49410;55.708;37.522;2023-02-15T08:26:29;99958.72;;;-3.21;nan
63287;BME280;49410;55.708;37.522;2023-02-15T08:28:55;99958.81;;;-3.23;nan
63287;BME280;49410;55.708;37.522;2023-02-15T08:31:24;99957.53;;;-3.16;nan
63287;BME280;49410;55.708;37.522;2023-02-15T08:33:51;99969.63;;;-3.07;nan
63287;BME280;49410;55.708;37.522;2023-02-15T08:36:20;99980.88;;;-3.00;nan
63287;BME280;49410;55.708;37.522;2023-02-15T08:38:46;99968.34;;;-3.00;nan
63287;BME280;49410;55.708;37.522;2023-02-15T08:41:14;99966.00;;;-2.88;nan
63287;BME280;49410;55.708;37.522;2023-02-15T08:43:41;99981.91;;;-2.85;nan
63287;BME280;49410;55.708;37.522;2023-02-15T08:46:10;99987.34;;;-2.87;nan
63287;BME280;49410;55.708;37.522;2023-02-15T08:48:36;99987.31;;;-3.04;nan
63287;BME280;49410;55.708;37.522;2023-02-15T08:51:12;99982.75;;;-3.02;nan
63287;BME280;49410;55.708;37.522;2023-02-15T08:53:40;99994.09;;;-2.97;nan
63287;BME280;49410;55.708;37.522;2023-02-15T08:56:07;99986.53;;;-2.89;nan
63287;BME280;49410;55.708;37.522;2023-02-15T08:58:33;99987.00;;;-2.98;nan
63287;BME280;49410;55.708;37.522;2023-02-15T09:00:59;99977.97;;;-2.95;nan
63287;BME280;49410;55.708;37.522;2023-02-15T09:03:25;99975.69;;;-2.68;nan
63287;BME280;49410;55.708;37.522;2023-02-15T09:05:50;99974.44;;;-2.61;nan
63287;BME280;49410;55.708;37.522;2023-02-15T09:08:16;99981.78;;;-2.64;nan
63287;BME280;49410;55.708;37.522;2023-02-15T09:10:41;99986.56;;;-2.54;nan
63287;BME280;49410;55.708;37.522;2023-02-15T09:13:07;99979.38;;;-2.53;nan
63287;BME280;49410;55.708;37.522;2023-02-15T09:15:32;99962.22;;;-2.49;nan
63287;BME280;49410;55.708;37.522;2023-02-15T09:17:58;99970.72;;;-2.41;nan
63287;BME280;49410;55.708;37.522;2023-02-15T09:20:27;99967.19;;;-2.41;nan
63287;BME280;49410;55.708;37.522;2023-02-15T09:22:53;99981.53;;;-2.42;nan
63287;BME280;49410;55.708;37.522;2023-02-15T09:25:19;99970.34;;;-2.51;nan
63287;BME280;49410;55.708;37.522;2023-02-15T09:27:45;99967.88;;;-2.73;nan
63287;BME280;49410;55.708;37.522;2023-02-15T09:30:11;99968.16;;;-2.60;nan
63287;BME280;49410;55.708;37.522;2023-02-15T09:32:37;99978.13;;;-2.63;nan
63287;BME280;49410;55.708;37.522;2023-02-15T09:35:02;99970.28;;;-2.67;nan
63287;BME280;49410;55.708;37.522;2023-02-15T09:37:29;99995.44;;;-2.53;nan
63287;BME280;49410;55.708;37.522;2023-02-15T09:39:55;99992.72;;;-2.52;nan
63287;BME280;49410;55.708;37.522;2023-02-15T09:42:42;99992.72;;;-2.52;nan
63287;BME280;49410;55.708;37.522;2023-02-15T09:48:41;99991.38;;;-2.60;nan
63287;BME280;49410;55.708;37.522;2023-02-15T09:51:26;100001.78;;;-2.37;nan
63287;BME280;49410;55.708;37.522;2023-02-15T09:54:08;99989.63;;;-2.44;nan
63287;BME280;49410;55.708;37.522;2023-02-15T09:56:57;99995.88;;;-2.61;nan
63287;BME280;49410;55.708;37.522;2023-02-15T10:04:54;99993.69;;;-2.19;nan
63287;BME280;49410;55.708;37.522;2023-02-15T10:13:25;100008.63;;;-2.31;nan
63287;BME280;49410;55.708;37.522;2023-02-15T10:21:58;100000.09;;;-2.22;nan
63287;BME280;49410;55.708;37.522;2023-02-15T10:25:19;100015.34;;;-2.06;nan
63287;BME280;49410;55.708;37.522;2023-02-15T10:27:53;100008.00;;;-2.03;nan
63287;BME280;49410;55.708;37.522;2023-02-15T10:31:22;100020.59;;;-2.21;nan
63287;BME280;49410;55.708;37.522;2023-02-15T10:39:06;100015.13;;;-2.54;nan
63287;BME280;49410;55.708;37.522;2023-02-15T10:41:46;100037.31;;;-2.33;nan
63287;BME280;49410;55.708;37.522;2023-02-15T10:52:29;100056.44;;;-2.58;nan
63287;BME280;49410;55.708;37.522;2023-02-15T10:55:13;100055.66;;;-2.43;nan
63287;BME280;49410;55.708;37.522;2023-02-15T10:58:22;100056.66;;;-2.63;nan
63287;BME280;49410;55.708;37.522;2023-02-15T11:07:04;100063.63;;;-2.41;nan
63287;BME280;49410;55.708;37.522;2023-02-15T11:09:42;100058.09;;;-2.38;nan
63287;BME280;49410;55.708;37.522;2023-02-15T11:12:16;100061.09;;;-2.27;nan
63287;BME280;49410;55.708;37.522;2023-02-15T11:14:50;100058.63;;;-2.31;nan
63287;BME280;49410;55.708;37.522;2023-02-15T11:17:27;100049.66;;;-2.48;nan
63287;BME280;49410;55.708;37.522;2023-02-15T11:22:21;100065.84;;;-2.50;nan
63287;BME280;49410;55.708;37.522;2023-02-15T11:24:51;100075.19;;;-2.41;nan
63287;BME280;49410;55.708;37.522;2023-02-15T11:27:22;100072.19;;;-2.52;nan
63287;BME280;49410;55.708;37.522;2023-02-15T11:29:57;100056.59;;;-2.61;nan
63287;BME280;49410;55.708;37.522;2023-02-15T11:32:35;100067.72;;;-2.52;nan
63287;BME280;49410;55.708;37.522;2023-02-15T11:37:51;100086.63;;;-2.37;nan
63287;BME280;49410;55.708;37.522;2023-02-15T11:40:32;100083.78;;;-2.34;nan
63287;BME280;49410;55.708;37.522;2023-02-15T11:43:13;100085.44;;;-2.31;nan
63287;BME280;49410;55.708;37.522;2023-02-15T11:45:45;100086.38;;;-2.32;nan
63287;BME280;49410;55.708;37.522;2023-02-15T11:48:12;100091.91;;;-2.36;nan
63287;BME280;49410;55.708;37.522;2023-02-15T11:50:39;100086.00;;;-2.42;nan
63287;BME280;49410;55.708;37.522;2023-02-15T11:53:19;100094.03;;;-2.42;nan
63287;BME280;49410;55.708;37.522;2023-02-15T11:55:53;100095.69;;;-2.40;nan
63287;BME280;49410;55.708;37.522;2023-02-15T12:03:52;100103.88;;;-2.43;nan
63287;BME280;49410;55.708;37.522;2023-02-15T12:06:27;100114.09;;;-2.51;nan
63287;BME280;49410;55.708;37.522;2023-02-15T12:11:39;100113.50;;;-2.39;nan
63287;BME280;49410;55.708;37.522;2023-02-15T12:14:07;100105.38;;;-2.37;nan
63287;BME280;49410;55.708;37.522;2023-02-15T12:16:49;100118.47;;;-2.31;nan
63287;BME280;49410;55.708;37.522;2023-02-15T12:19:38;100113.41;;;-2.37;nan
63287;BME280;49410;55.708;37.522;2023-02-15T12:24:50;100124.66;;;-2.48;nan
63287;BME280;49410;55.708;37.522;2023-02-15T12:27:34;100115.28;;;-2.57;nan
63287;BME280;49410;55.708;37.522;2023-02-15T12:30:15;100122.25;;;-2.35;nan
63287;BME280;49410;55.708;37.522;2023-02-15T12:32:54;100120.25;;;-2.49;nan
63287;BME280;49410;55.708;37.522;2023-02-15T12:38:37;100130.50;;;-2.57;nan
63287;BME280;49410;55.708;37.522;2023-02-15T12:40:57;100129.91;;;-2.64;nan
63287;BME280;49410;55.708;37.522;2023-02-15T12:43:33;100122.47;;;-2.76;nan
63287;BME280;49410;55.708;37.522;2023-02-15T12:48:43;100152.19;;;-2.63;nan
63287;BME280;49410;55.708;37.522;2023-02-15T12:51:09;100160.09;;;-2.60;nan
63287;BME280;49410;55.708;37.522;2023-02-15T12:53:39;100145.63;;;-2.75;nan
63287;BME280;49410;55.708;37.522;2023-02-15T12:56:07;100158.78;;;-2.71;nan
63287;BME280;49410;55.708;37.522;2023-02-15T12:58:40;100153.31;;;-2.68;nan
63287;BME280;49410;55.708;37.522;2023-02-15T13:03:59;100160.03;;;-2.78;nan
63287;BME280;49410;55.708;37.522;2023-02-15T13:06:27;100151.06;;;-2.96;nan
63287;BME280;49410;55.708;37.522;2023-02-15T13:09:12;100163.50;;;-3.14;nan
63287;BME280;49410;55.708;37.522;2023-02-15T13:11:41;100161.41;;;-3.07;nan
63287;BME280;49410;55.708;37.522;2023-02-15T13:14:20;100172.56;;;-2.98;nan
63287;BME280;49410;55.708;37.522;2023-02-15T13:16:50;100160.97;;;-2.79;nan
63287;BME280;49410;55.708;37.522;2023-02-15T13:19:30;100173.84;;;-2.68;nan
63287;BME280;49410;55.708;37.522;2023-02-15T13:21:57;100176.81;;;-2.55;nan
63287;BME280;49410;55.708;37.522;2023-02-15T13:27:04;100181.38;;;-2.57;nan
63287;BME280;49410;55.708;37.522;2023-02-15T13:29:36;100179.84;;;-2.82;nan
63287;BME280;49410;55.708;37.522;2023-02-15T13:32:12;100191.00;;;-2.91;nan
63287;BME280;49410;55.708;37.522;2023-02-15T13:34:47;100200.41;;;-3.02;nan
63287;BME280;49410;55.708;37.522;2023-02-15T13:37:19;100202.00;;;-2.98;nan
63287;BME280;49410;55.708;37.522;2023-02-15T13:39:51;100196.81;;;-2.82;nan
63287;BME280;49410;55.708;37.522;2023-02-15T13:58:27;100194.19;;;-2.83;nan
63287;BME280;49410;55.708;37.522;2023-02-15T14:01:21;100198.00;;;-2.89;nan
63287;BME280;49410;55.708;37.522;2023-02-15T14:12:29;100207.56;;;-3.02;nan
63287;BME280;49410;55.708;37.522;2023-02-15T14:15:08;100223.00;;;-2.88;nan
63287;BME280;49410;55.708;37.522;2023-02-15T14:28:50;100229.56;;;-2.95;nan
63287;BME280;49410;55.708;37.522;2023-02-15T14:31:21;100239.66;;;-3.21;nan
63287;BME280;49410;55.708;37.522;2023-02-15T14:33:56;100243.38;;;-3.25;nan
63287;BME280;49410;55.708;37.522;2023-02-15T14:36:22;100230.97;;;-3.26;nan
63287;BME280;49410;55.708;37.522;2023-02-15T14:42:21;100218.38;;;-3.24;nan
63287;BME280;49410;55.708;37.522;2023-02-15T14:47:31;100246.31;;;-3.11;nan
63287;BME280;49410;55.708;37.522;2023-02-15T14:49:59;100250.66;;;-3.08;nan
63287;BME280;49410;55.708;37.522;2023-02-15T14:52:24;100257.03;;;-3.11;nan
63287;BME280;49410;55.708;37.522;2023-02-15T15:02:28;100267.38;;;-3.03;nan
63287;BME280;49410;55.708;37.522;2023-02-15T15:05:46;100252.47;;;-3.09;nan
63287;BME280;49410;55.708;37.522;2023-02-15T15:07:54;100251.34;;;-3.24;nan
63287;BME280;49410;55.708;37.522;2023-02-15T15:12:47;100270.88;;;-3.01;nan
63287;BME280;49410;55.708;37.522;2023-02-15T15:15:33;100271.84;;;-3.04;nan
63287;BME280;49410;55.708;37.522;2023-02-15T15:25:51;100269.56;;;-3.12;nan
63287;BME280;49410;55.708;37.522;2023-02-15T15:42:20;100299.44;;;-3.43;nan
63287;BME280;49410;55.708;37.522;2023-02-15T15:45:08;100307.94;;;-3.33;nan
63287;BME280;49410;55.708;37.522;2023-02-15T15:50:20;100304.06;;;-3.47;nan
63287;BME280;49410;55.708;37.522;2023-02-15T15:52:53;100310.34;;;-3.48;nan
63287;BME280;49410;55.708;37.522;2023-02-15T15:55:22;100304.53;;;-3.57;nan
63287;BME280;49410;55.708;37.522;2023-02-15T15:57:52;100313.91;;;-3.47;nan
63287;BME280;49410;55.708;37.522;2023-02-15T16:02:51;100309.09;;;-3.39;nan
63287;BME280;49410;55.708;37.522;2023-02-15T16:05:16;100318.16;;;-3.43;nan
63287;BME280;49410;55.708;37.522;2023-02-15T16:07:42;100324.84;;;-3.33;nan
63287;BME280;49410;55.708;37.522;2023-02-15T16:10:23;100315.44;;;-3.41;nan
63287;BME280;49410;55.708;37.522;2023-02-15T16:12:50;100319.44;;;-3.52;nan
63287;BME280;49410;55.708;37.522;2023-02-15T16:15:20;100318.13;;;-3.41;nan
63287;BME280;49410;55.708;37.522;2023-02-15T16:17:49;100329.53;;;-3.38;nan
63287;BME280;49410;55.708;37.522;2023-02-15T16:20:22;100338.22;;;-3.33;nan
63287;BME280;49410;55.708;37.522;2023-02-15T16:23:07;100334.59;;;-3.52;nan